sensor_id;sensor_type;location;lat;lon;timestamp;pressure;altitude;pressure_sealevel;temperature;humidity
9474;BME280;8865;47.636;7.692;2024-02-21T00:01:04;99392.28;;;5.44;100.00
9474;BME280;8865;47.636;7.692;2024-02-21T00:03:31;99386.38;;;5.40;100.00
9474;BME280;8865;47.636;7.692;2024-02-21T00:05:57;99386.38;;;5.40;100.00
9474;BME280;8865;47.636;7.692;2024-02-21T00:08:23;99381.25;;;5.39;100.00
9474;BME280;8865;47.636;7.692;2024-02-21T00:10:49;99379.38;;;5.42;100.00
9474;BME280;8865;47.636;7.692;2024-02-21T00:13:15;99376.28;;;5.34;100.00
9474;BME280;8865;47.636;7.692;2024-02-21T00:15:41;99372.78;;;5.35;100.00
9474;BME280;8865;47.636;7.692;2024-02-21T00:18:07;99373.53;;;5.37;100.00
9474;BME280;8865;47.636;7.692;2024-02-21T00:20:33;99364.97;;;5.35;100.00
9474;BME280;8865;47.636;7.692;2024-02-21T00:22:58;99365.53;;;5.42;100.00
9474;BME280;8865;47.636;7.692;2024-02-21T00:25:24;99365.59;;;5.40;100.00
9474;BME280;8865;47.636;7.692;2024-02-21T00:27:50;99355.19;;;5.40;100.00
9474;BME280;8865;47.636;7.692;2024-02-21T00:30:16;99363.94;;;5.39;100.00
9474;BME280;8865;47.636;7.692;2024-02-21T00:32:42;99362.16;;;5.40;100.00
9474;BME280;8865;47.636;7.692;2024-02-21T00:35:08;99364.75;;;5.40;100.00
9474;BME280;8865;47.636;7.692;2024-02-21T00:37:35;99359.50;;;5.41;100.00
9474;BME280;8865;47.636;7.692;2024-02-21T00:40:01;99374.94;;;5.44;100.00
9474;BME280;8865;47.636;7.692;2024-02-21T00:42:27;99371.34;;;5.47;100.00
9474;BME280;8865;47.636;7.692;2024-02-21T00:44:52;99360.03;;;5.48;100.00
9474;BME280;8865;47.636;7.692;2024-02-21T00:47:18;99358.44;;;5.45;100.00
9474;BME280;8865;47.636;7.692;2024-02-21T00:49:45;99360.09;;;5.46;100.00
9474;BME280;8865;47.636;7.692;2024-02-21T00:52:11;99357.28;;;5.51;100.00
9474;BME280;8865;47.636;7.692;2024-02-21T00:54:37;99368.47;;;5.53;100.00
9474;BME280;8865;47.636;7.692;2024-02-21T00:57:03;99354.53;;;5.54;100.00
9474;BME280;8865;47.636;7.692;2024-02-21T00:59:29;99350.22;;;5.54;100.00
9474;BME280;8865;47.636;7.692;2024-02-21T01:01:55;99342.25;;;5.58;100.00
9474;BME280;8865;47.636;7.692;2024-02-21T01:04:20;99342.34;;;5.56;100.00
9474;BME280;8865;47.636;7.692;2024-02-21T01:06:47;99341.41;;;5.57;100.00
9474;BME280;8865;47.636;7.692;2024-02-21T01:09:13;99338.03;;;5.55;100.00
9474;BME280;8865;47.636;7.692;2024-02-21T01:11:40;99337.13;;;5.56;100.00
9474;BME280;8865;47.636;7.692;2024-02-21T01:14:06;99337.13;;;5.56;100.00
9474;BME280;8865;47.636;7.692;2024-02-21T01:16:31;99335.22;;;5.60;100.00
9474;BME280;8865;47.636;7.692;2024-02-21T01:18:57;99331.66;;;5.62;100.00
9474;BME280;8865;47.636;7.692;2024-02-21T01:21:23;99324.69;;;5.63;100.00
9474;BME280;8865;47.636;7.692;2024-02-21T01:23:49;99318.72;;;5.61;100.00
9474;BME280;8865;47.636;7.692;2024-02-21T01:26:15;99313.31;;;5.65;100.00
9474;BME280;8865;47.636;7.692;2024-02-21T01:28:41;99308.34;;;5.61;100.00
9474;BME280;8865;47.636;7.692;2024-02-21T01:31:07;99306.56;;;5.61;100.00
9474;BME280;8865;47.636;7.692;2024-02-21T01:33:34;99296.31;;;5.58;100.00
9474;BME280;8865;47.636;7.692;2024-02-21T01:36:04;99301.66;;;5.55;100.00
9474;BME280;8865;47.636;7.692;2024-02-21T01:38:33;99304.19;;;5.57;100.00
9474;BME280;8865;47.636;7.692;2024-02-21T01:41:00;99302.56;;;5.54;100.00
9474;BME280;8865;47.636;7.692;2024-02-21T01:43:26;99293.25;;;5.50;100.00
9474;BME280;8865;47.636;7.692;2024-02-21T01:45:53;99283.84;;;5.47;100.00
9474;BME280;8865;47.636;7.692;2024-02-21T01:48:20;99281.09;;;5.50;100.00
9474;BME280;8865;47.636;7.692;2024-02-21T01:50:47;99268.19;;;5.49;100.00
9474;BME280;8865;47.636;7.692;2024-02-21T01:53:17;99273.44;;;5.47;100.00
9474;BME280;8865;47.636;7.692;2024-02-21T01:55:48;99262.31;;;5.45;100.00
9474;BME280;8865;47.636;7.692;2024-02-21T01:58:15;99251.91;;;5.45;100.00
9474;BME280;8865;47.636;7.692;2024-02-21T02:00:46;99258.69;;;5.48;100.00
9474;BME280;8865;47.636;7.692;2024-02-21T02:03:13;99261.28;;;5.48;100.00
9474;BME280;8865;47.636;7.692;2024-02-21T02:05:47;99258.63;;;5.49;100.00
9474;BME280;8865;47.636;7.692;2024-02-21T02:08:14;99257.47;;;5.55;100.00
9474;BME280;8865;47.636;7.692;2024-02-21T02:10:41;99247.09;;;5.55;100.00
9474;BME280;8865;47.636;7.692;2024-02-21T02:13:07;99249.69;;;5.55;100.00
9474;BME280;8865;47.636;7.692;2024-02-21T02:15:41;99241.81;;;5.57;100.00
9474;BME280;8865;47.636;7.692;2024-02-21T02:18:07;99239.00;;;5.61;100.00
9474;BME280;8865;47.636;7.692;2024-02-21T02:20:35;99231.28;;;5.60;100.00
9474;BME280;8865;47.636;7.692;2024-02-21T02:25:31;99232.09;;;5.60;100.00
9474;BME280;8865;47.636;7.692;2024-02-21T02:27:57;99234.69;;;5.60;100.00
9474;BME280;8865;47.636;7.692;2024-02-21T02:30:23;99233.13;;;5.58;100.00
9474;BME280;8865;47.636;7.692;2024-02-21T02:32:49;99224.47;;;5.57;100.00
9474;BME280;8865;47.636;7.692;2024-02-21T02:35:15;99228.59;;;5.61;100.00
9474;BME280;8865;47.636;7.692;2024-02-21T02:37:48;99230.44;;;5.59;100.00
9474;BME280;8865;47.636;7.692;2024-02-21T02:40:14;99223.56;;;5.58;100.00
9474;BME280;8865;47.636;7.692;2024-02-21T02:42:40;99217.69;;;5.54;100.00
9474;BME280;8865;47.636;7.692;2024-02-21T02:45:06;99214.28;;;5.52;100.00
9474;BME280;8865;47.636;7.692;2024-02-21T02:47:33;99193.50;;;5.52;100.00
9474;BME280;8865;47.636;7.692;2024-02-21T02:50:01;99192.66;;;5.52;100.00
9474;BME280;8865;47.636;7.692;2024-02-21T02:52:27;99193.66;;;5.49;100.00
9474;BME280;8865;47.636;7.692;2024-02-21T02:54:53;99186.97;;;5.45;100.00
9474;BME280;8865;47.636;7.692;2024-02-21T02:57:21;99181.84;;;5.44;100.00
9474;BME280;8865;47.636;7.692;2024-02-21T02:59:48;99186.16;;;5.43;100.00
9474;BME280;8865;47.636;7.692;2024-02-21T03:02:15;99175.03;;;5.41;100.00
9474;BME280;8865;47.636;7.692;2024-02-21T03:04:41;99167.38;;;5.38;100.00
9474;BME280;8865;47.636;7.692;2024-02-21T03:07:07;99158.75;;;5.38;100.00
9474;BME280;8865;47.636;7.692;2024-02-21T03:09:33;99158.06;;;5.34;100.00
9474;BME280;8865;47.636;7.692;2024-02-21T03:11:59;99157.97;;;5.35;100.00
9474;BME280;8865;47.636;7.692;2024-02-21T03:14:29;99153.78;;;5.33;100.00
9474;BME280;8865;47.636;7.692;2024-02-21T03:16:56;99154.63;;;5.33;100.00
9474;BME280;8865;47.636;7.692;2024-02-21T03:19:22;99154.78;;;5.30;100.00
9474;BME280;8865;47.636;7.692;2024-02-21T03:21:52;99148.84;;;5.28;100.00
9474;BME280;8865;47.636;7.692;2024-02-21T03:24:22;99145.44;;;5.26;100.00
9474;BME280;8865;47.636;7.692;2024-02-21T03:26:48;99137.88;;;5.22;100.00
9474;BME280;8865;47.636;7.692;2024-02-21T03:29:16;99136.34;;;5.17;100.00
9474;BME280;8865;47.636;7.692;2024-02-21T03:31:42;99130.47;;;5.14;100.00
9474;BME280;8865;47.636;7.692;2024-02-21T03:34:11;99135.06;;;5.09;100.00
9474;BME280;8865;47.636;7.692;2024-02-21T03:36:37;99130.03;;;5.06;100.00
9474;BME280;8865;47.636;7.692;2024-02-21T03:39:03;99133.53;;;5.05;100.00
9474;BME280;8865;47.636;7.692;2024-02-21T03:41:29;99122.41;;;5.03;100.00
9474;BME280;8865;47.636;7.692;2024-02-21T03:43:55;99121.69;;;4.99;100.00
9474;BME280;8865;47.636;7.692;2024-02-21T03:48:50;99113.97;;;4.97;100.00
9474;BME280;8865;47.636;7.692;2024-02-21T03:51:16;99121.91;;;4.94;100.00
9474;BME280;8865;47.636;7.692;2024-02-21T03:53:42;99110.84;;;4.91;100.00
9474;BME280;8865;47.636;7.692;2024-02-21T03:56:09;99114.34;;;4.90;100.00
9474;BME280;8865;47.636;7.692;2024-02-21T03:58:35;99105.88;;;4.86;100.00
9474;BME280;8865;47.636;7.692;2024-02-21T04:01:02;99110.09;;;4.89;100.00
9474;BME280;8865;47.636;7.692;2024-02-21T04:03:30;99110.09;;;4.89;100.00
9474;BME280;8865;47.636;7.692;2024-02-21T04:05:59;99118.88;;;4.86;100.00
9474;BME280;8865;47.636;7.692;2024-02-21T04:08:47;99109.63;;;4.80;100.00
9474;BME280;8865;47.636;7.692;2024-02-21T04:11:12;99107.31;;;4.74;100.00
9474;BME280;8865;47.636;7.692;2024-02-21T04:13:38;99099.59;;;4.73;100.00
9474;BME280;8865;47.636;7.692;2024-02-21T04:16:04;99095.56;;;4.67;100.00
9474;BME280;8865;47.636;7.692;2024-02-21T04:18:31;99098.31;;;4.64;100.00
9474;BME280;8865;47.636;7.692;2024-02-21T04:20:58;99094.03;;;4.63;100.00
9474;BME280;8865;47.636;7.692;2024-02-21T04:23:24;99099.38;;;4.60;100.00
9474;BME280;8865;47.636;7.692;2024-02-21T04:25:50;99088.91;;;4.61;100.00
9474;BME280;8865;47.636;7.692;2024-02-21T04:28:16;99076.00;;;4.60;100.00
9474;BME280;8865;47.636;7.692;2024-02-21T04:30:45;99068.44;;;4.55;100.00
9474;BME280;8865;47.636;7.692;2024-02-21T04:33:12;99071.94;;;4.54;100.00
9474;BME280;8865;47.636;7.692;2024-02-21T04:35:41;99073.88;;;4.51;100.00
9474;BME280;8865;47.636;7.692;2024-02-21T04:38:07;99070.59;;;4.47;100.00
9474;BME280;8865;47.636;7.692;2024-02-21T04:40:33;99074.38;;;4.40;100.00
9474;BME280;8865;47.636;7.692;2024-02-21T04:42:59;99070.16;;;4.37;100.00
9474;BME280;8865;47.636;7.692;2024-02-21T04:45:25;99064.22;;;4.35;100.00
9474;BME280;8865;47.636;7.692;2024-02-21T04:47:51;99067.78;;;4.33;100.00
9474;BME280;8865;47.636;7.692;2024-02-21T04:50:18;99063.53;;;4.32;100.00
9474;BME280;8865;47.636;7.692;2024-02-21T04:52:44;99072.28;;;4.29;100.00
9474;BME280;8865;47.636;7.692;2024-02-21T04:55:10;99073.50;;;4.22;100.00
9474;BME280;8865;47.636;7.692;2024-02-21T04:57:36;99072.66;;;4.21;100.00
9474;BME280;8865;47.636;7.692;2024-02-21T05:00:02;99074.47;;;4.19;100.00
9474;BME280;8865;47.636;7.692;2024-02-21T05:02:30;99076.22;;;4.19;100.00
9474;BME280;8865;47.636;7.692;2024-02-21T05:04:56;99069.41;;;4.16;100.00
9474;BME280;8865;47.636;7.692;2024-02-21T05:07:22;99057.38;;;4.15;100.00
9474;BME280;8865;47.636;7.692;2024-02-21T05:09:48;99048.06;;;4.11;100.00
9474;BME280;8865;47.636;7.692;2024-02-21T05:12:14;99043.94;;;4.07;100.00
9474;BME280;8865;47.636;7.692;2024-02-21T05:14:40;99042.25;;;4.06;100.00
9474;BME280;8865;47.636;7.692;2024-02-21T05:17:06;99041.69;;;3.99;100.00
9474;BME280;8865;47.636;7.692;2024-02-21T05:19:32;99037.50;;;3.97;100.00
9474;BME280;8865;47.636;7.692;2024-02-21T05:21:59;99031.53;;;3.94;100.00
9474;BME280;8865;47.636;7.692;2024-02-21T05:24:25;99039.38;;;3.93;100.00
9474;BME280;8865;47.636;7.692;2024-02-21T05:26:51;99037.00;;;3.88;100.00
9474;BME280;8865;47.636;7.692;2024-02-21T05:29:17;99033.66;;;3.86;100.00
9474;BME280;8865;47.636;7.692;2024-02-21T05:34:19;99031.28;;;3.82;100.00
9474;BME280;8865;47.636;7.692;2024-02-21T05:36:45;99031.22;;;3.83;100.00
9474;BME280;8865;47.636;7.692;2024-02-21T05:39:12;99022.88;;;3.77;100.00
9474;BME280;8865;47.636;7.692;2024-02-21T05:41:38;99022.88;;;3.77;100.00
9474;BME280;8865;47.636;7.692;2024-02-21T05:44:04;99016.91;;;3.74;100.00
9474;BME280;8865;47.636;7.692;2024-02-21T05:46:30;99020.50;;;3.72;100.00
9474;BME280;8865;47.636;7.692;2024-02-21T05:48:56;99013.63;;;3.71;100.00
9474;BME280;8865;47.636;7.692;2024-02-21T05:51:22;99008.59;;;3.68;100.00
9474;BME280;8865;47.636;7.692;2024-02-21T05:53:48;99004.31;;;3.67;100.00
9474;BME280;8865;47.636;7.692;2024-02-21T05:56:14;99005.16;;;3.67;100.00
9474;BME280;8865;47.636;7.692;2024-02-21T05:58:40;99011.19;;;3.68;100.00
9474;BME280;8865;47.636;7.692;2024-02-21T06:01:07;99017.25;;;3.67;100.00
9474;BME280;8865;47.636;7.692;2024-02-21T06:03:33;99022.38;;;3.68;100.00
9474;BME280;8865;47.636;7.692;2024-02-21T06:06:00;99018.19;;;3.66;100.00
9474;BME280;8865;47.636;7.692;2024-02-21T06:08:26;99019.09;;;3.65;100.00
9474;BME280;8865;47.636;7.692;2024-02-21T06:10:52;99019.22;;;3.62;100.00
9474;BME280;8865;47.636;7.692;2024-02-21T06:13:21;99027.16;;;3.58;100.00
9474;BME280;8865;47.636;7.692;2024-02-21T06:15:47;99027.16;;;3.58;100.00
9474;BME280;8865;47.636;7.692;2024-02-21T06:18:13;99028.84;;;3.60;100.00
9474;BME280;8865;47.636;7.692;2024-02-21T06:20:39;99027.97;;;3.59;100.00
9474;BME280;8865;47.636;7.692;2024-02-21T06:23:06;99009.78;;;3.61;100.00
9474;BME280;8865;47.636;7.692;2024-02-21T06:25:32;99004.59;;;3.61;100.00
9474;BME280;8865;47.636;7.692;2024-02-21T06:27:58;99004.66;;;3.59;100.00
9474;BME280;8865;47.636;7.692;2024-02-21T06:30:25;99008.88;;;3.62;100.00
9474;BME280;8865;47.636;7.692;2024-02-21T06:32:51;99007.31;;;3.57;100.00
9474;BME280;8865;47.636;7.692;2024-02-21T06:35:17;99007.03;;;3.64;100.00
9474;BME280;8865;47.636;7.692;2024-02-21T06:37:43;99001.78;;;3.65;100.00
9474;BME280;8865;47.636;7.692;2024-02-21T06:40:11;99006.22;;;3.63;100.00
9474;BME280;8865;47.636;7.692;2024-02-21T06:42:37;99007.03;;;3.64;100.00
9474;BME280;8865;47.636;7.692;2024-02-21T06:45:03;99001.78;;;3.65;100.00
9474;BME280;8865;47.636;7.692;2024-02-21T06:47:29;98994.75;;;3.69;100.00
9474;BME280;8865;47.636;7.692;2024-02-21T06:49:55;98992.22;;;3.67;100.00
9474;BME280;8865;47.636;7.692;2024-02-21T06:52:21;98996.97;;;3.77;100.00
9474;BME280;8865;47.636;7.692;2024-02-21T06:54:48;98995.00;;;3.82;100.00
9474;BME280;8865;47.636;7.692;2024-02-21T06:57:14;98995.06;;;3.80;100.00
9474;BME280;8865;47.636;7.692;2024-02-21T06:59:41;98997.72;;;3.79;100.00
9474;BME280;8865;47.636;7.692;2024-02-21T07:02:07;98991.38;;;3.86;100.00
9474;BME280;8865;47.636;7.692;2024-02-21T07:04:34;98987.78;;;3.88;100.00
9474;BME280;8865;47.636;7.692;2024-02-21T07:07:00;98981.31;;;3.97;100.00
9474;BME280;8865;47.636;7.692;2024-02-21T07:09:26;98982.72;;;4.04;100.00
9474;BME280;8865;47.636;7.692;2024-02-21T07:11:54;98990.13;;;4.12;100.00
9474;BME280;8865;47.636;7.692;2024-02-21T07:14:20;98990.81;;;4.16;100.00
9474;BME280;8865;47.636;7.692;2024-02-21T07:16:46;98990.50;;;4.22;100.00
9474;BME280;8865;47.636;7.692;2024-02-21T07:19:12;98988.56;;;4.27;100.00
9474;BME280;8865;47.636;7.692;2024-02-21T07:21:38;98976.72;;;4.39;100.00
9474;BME280;8865;47.636;7.692;2024-02-21T07:24:07;98985.97;;;4.44;100.00
9474;BME280;8865;47.636;7.692;2024-02-21T07:26:33;98984.19;;;4.45;100.00
9474;BME280;8865;47.636;7.692;2024-02-21T07:28:59;98977.41;;;4.60;100.00
9474;BME280;8865;47.636;7.692;2024-02-21T07:31:25;98974.66;;;4.63;100.00
9474;BME280;8865;47.636;7.692;2024-02-21T07:33:51;98984.44;;;4.75;100.00
9474;BME280;8865;47.636;7.692;2024-02-21T07:36:28;98974.34;;;4.87;100.00
9474;BME280;8865;47.636;7.692;2024-02-21T07:38:55;98980.81;;;4.95;100.00
9474;BME280;8865;47.636;7.692;2024-02-21T07:41:21;98959.75;;;5.01;100.00
9474;BME280;8865;47.636;7.692;2024-02-21T07:43:47;98962.59;;;5.13;100.00
9474;BME280;8865;47.636;7.692;2024-02-21T07:46:14;98967.47;;;5.19;100.00
9474;BME280;8865;47.636;7.692;2024-02-21T07:48:40;98964.19;;;5.33;100.00
9474;BME280;8865;47.636;7.692;2024-02-21T07:51:06;98967.09;;;5.43;100.00
9474;BME280;8865;47.636;7.692;2024-02-21T07:53:32;98965.34;;;5.43;100.00
9474;BME280;8865;47.636;7.692;2024-02-21T07:55:58;98955.97;;;5.57;100.00
9474;BME280;8865;47.636;7.692;2024-02-21T07:58:24;98954.31;;;5.71;100.00
9474;BME280;8865;47.636;7.692;2024-02-21T08:00:50;98946.41;;;5.89;100.00
9474;BME280;8865;47.636;7.692;2024-02-21T08:03:16;98940.78;;;5.97;100.00
9474;BME280;8865;47.636;7.692;2024-02-21T08:05:43;98928.09;;;6.06;100.00
9474;BME280;8865;47.636;7.692;2024-02-21T08:08:09;98928.91;;;6.23;100.00
9474;BME280;8865;47.636;7.692;2024-02-21T08:10:35;98936.78;;;6.37;100.00
9474;BME280;8865;47.636;7.692;2024-02-21T08:13:01;98939.22;;;6.55;100.00
9474;BME280;8865;47.636;7.692;2024-02-21T08:15:27;98937.00;;;6.63;100.00
9474;BME280;8865;47.636;7.692;2024-02-21T08:17:55;98929.03;;;6.81;100.00
9474;BME280;8865;47.636;7.692;2024-02-21T08:20:25;98923.66;;;6.98;100.00
9474;BME280;8865;47.636;7.692;2024-02-21T08:22:52;98916.47;;;7.16;100.00
9474;BME280;8865;47.636;7.692;2024-02-21T08:25:18;98912.94;;;7.31;100.00
9474;BME280;8865;47.636;7.692;2024-02-21T08:27:44;98909.06;;;7.51;100.00
9474;BME280;8865;47.636;7.692;2024-02-21T08:30:11;98906.78;;;7.74;100.00
9474;BME280;8865;47.636;7.692;2024-02-21T08:32:38;98914.16;;;7.95;100.00
9474;BME280;8865;47.636;7.692;2024-02-21T08:35:04;98909.06;;;8.06;100.00
9474;BME280;8865;47.636;7.692;2024-02-21T08:37:30;98906.00;;;8.27;100.00
9474;BME280;8865;47.636;7.692;2024-02-21T08:39:56;98893.94;;;8.51;100.00
9474;BME280;8865;47.636;7.692;2024-02-21T08:42:23;98898.84;;;8.69;100.00
9474;BME280;8865;47.636;7.692;2024-02-21T08:44:49;98900.84;;;8.91;100.00
9474;BME280;8865;47.636;7.692;2024-02-21T08:47:15;98897.16;;;9.06;100.00
9474;BME280;8865;47.636;7.692;2024-02-21T08:49:41;98896.16;;;9.33;100.00
9474;BME280;8865;47.636;7.692;2024-02-21T08:52:07;98887.84;;;9.52;100.00
9474;BME280;8865;47.636;7.692;2024-02-21T08:54:33;98887.03;;;9.76;100.00
9474;BME280;8865;47.636;7.692;2024-02-21T08:56:59;98877.50;;;10.10;100.00
9474;BME280;8865;47.636;7.692;2024-02-21T08:59:26;98876.16;;;10.64;100.00
9474;BME280;8865;47.636;7.692;2024-02-21T09:01:52;98866.97;;;11.15;100.00
9474;BME280;8865;47.636;7.692;2024-02-21T09:04:18;98861.38;;;11.64;100.00
9474;BME280;8865;47.636;7.692;2024-02-21T09:06:45;98858.50;;;12.10;100.00
9474;BME280;8865;47.636;7.692;2024-02-21T09:09:12;98864.13;;;12.27;100.00
9474;BME280;8865;47.636;7.692;2024-02-21T09:11:38;98863.47;;;12.35;100.00
9474;BME280;8865;47.636;7.692;2024-02-21T09:14:05;98859.06;;;12.35;100.00
9474;BME280;8865;47.636;7.692;2024-02-21T09:16:31;98857.69;;;12.41;100.00
9474;BME280;8865;47.636;7.692;2024-02-21T09:18:58;98840.28;;;12.40;100.00
9474;BME280;8865;47.636;7.692;2024-02-21T09:21:24;98839.56;;;12.59;100.00
9474;BME280;8865;47.636;7.692;2024-02-21T09:23:50;98826.66;;;12.77;100.00
9474;BME280;8865;47.636;7.692;2024-02-21T09:26:16;98835.59;;;13.05;100.00
9474;BME280;8865;47.636;7.692;2024-02-21T09:28:43;98830.59;;;13.43;100.00
9474;BME280;8865;47.636;7.692;2024-02-21T09:31:09;98825.63;;;13.79;100.00
9474;BME280;8865;47.636;7.692;2024-02-21T09:33:35;98818.09;;;14.23;100.00
9474;BME280;8865;47.636;7.692;2024-02-21T09:36:03;98820.06;;;14.78;97.37
9474;BME280;8865;47.636;7.692;2024-02-21T09:38:31;98815.72;;;15.32;92.63
9474;BME280;8865;47.636;7.692;2024-02-21T09:41:16;98817.84;;;15.65;88.21
9474;BME280;8865;47.636;7.692;2024-02-21T09:43:43;98816.38;;;15.98;82.30
9474;BME280;8865;47.636;7.692;2024-02-21T09:46:18;98822.34;;;16.00;78.43
9474;BME280;8865;47.636;7.692;2024-02-21T09:51:32;98821.44;;;16.62;72.52
9474;BME280;8865;47.636;7.692;2024-02-21T09:54:00;98820.69;;;17.12;68.73
9474;BME280;8865;47.636;7.692;2024-02-21T09:56:28;98822.78;;;17.76;66.21
9474;BME280;8865;47.636;7.692;2024-02-21T09:58:55;98808.75;;;18.17;62.62
9474;BME280;8865;47.636;7.692;2024-02-21T10:01:21;98808.72;;;17.76;56.13
9474;BME280;8865;47.636;7.692;2024-02-21T10:03:47;98794.47;;;17.77;58.43
9474;BME280;8865;47.636;7.692;2024-02-21T10:06:13;98796.56;;;18.47;58.93
9474;BME280;8865;47.636;7.692;2024-02-21T10:08:39;98783.50;;;19.02;53.50
9474;BME280;8865;47.636;7.692;2024-02-21T10:11:06;98777.69;;;19.76;52.51
9474;BME280;8865;47.636;7.692;2024-02-21T10:13:35;98780.03;;;20.17;51.14
9474;BME280;8865;47.636;7.692;2024-02-21T10:16:05;98780.41;;;20.44;47.72
9474;BME280;8865;47.636;7.692;2024-02-21T10:18:32;98778.59;;;20.89;46.47
9474;BME280;8865;47.636;7.692;2024-02-21T10:21:06;98780.31;;;20.97;46.41
9474;BME280;8865;47.636;7.692;2024-02-21T10:23:53;98772.19;;;21.20;45.10
9474;BME280;8865;47.636;7.692;2024-02-21T10:26:19;98775.75;;;21.27;45.07
9474;BME280;8865;47.636;7.692;2024-02-21T10:28:46;98769.13;;;21.81;43.02
9474;BME280;8865;47.636;7.692;2024-02-21T10:31:23;98760.53;;;22.14;41.82
9474;BME280;8865;47.636;7.692;2024-02-21T10:34:00;98767.16;;;22.25;41.81
9474;BME280;8865;47.636;7.692;2024-02-21T10:36:29;98756.22;;;22.41;40.11
9474;BME280;8865;47.636;7.692;2024-02-21T10:38:56;98755.25;;;22.49;41.02
9474;BME280;8865;47.636;7.692;2024-02-21T10:41:23;98750.56;;;22.58;39.29
9474;BME280;8865;47.636;7.692;2024-02-21T10:43:53;98746.47;;;22.27;39.15
9474;BME280;8865;47.636;7.692;2024-02-21T10:46:22;98742.34;;;22.24;39.08
9474;BME280;8865;47.636;7.692;2024-02-21T10:49:40;98733.16;;;22.05;39.04
9474;BME280;8865;47.636;7.692;2024-02-21T10:51:46;98741.22;;;21.19;39.20
9474;BME280;8865;47.636;7.692;2024-02-21T10:54:44;98737.56;;;20.54;41.24
9474;BME280;8865;47.636;7.692;2024-02-21T10:57:10;98729.97;;;21.02;41.80
9474;BME280;8865;47.636;7.692;2024-02-21T10:59:37;98730.56;;;20.82;42.52
9474;BME280;8865;47.636;7.692;2024-02-21T11:02:03;98717.19;;;21.12;40.94
9474;BME280;8865;47.636;7.692;2024-02-21T11:04:30;98711.28;;;21.38;40.51
9474;BME280;8865;47.636;7.692;2024-02-21T11:06:57;98708.13;;;21.50;38.71
9474;BME280;8865;47.636;7.692;2024-02-21T11:09:30;98704.84;;;20.90;39.53
9474;BME280;8865;47.636;7.692;2024-02-21T11:11:58;98701.59;;;21.52;38.51
9474;BME280;8865;47.636;7.692;2024-02-21T11:14:27;98690.09;;;22.08;38.88
9474;BME280;8865;47.636;7.692;2024-02-21T11:16:54;98690.19;;;22.57;38.33
9474;BME280;8865;47.636;7.692;2024-02-21T11:19:28;98681.44;;;22.76;38.09
9474;BME280;8865;47.636;7.692;2024-02-21T11:21:56;98686.06;;;22.54;37.17
9474;BME280;8865;47.636;7.692;2024-02-21T11:24:28;98680.38;;;22.29;39.89
9474;BME280;8865;47.636;7.692;2024-02-21T11:26:56;98675.84;;;21.94;38.98
9474;BME280;8865;47.636;7.692;2024-02-21T11:29:25;98666.56;;;21.84;38.36
9474;BME280;8865;47.636;7.692;2024-02-21T11:31:52;98663.38;;;21.67;38.17
9474;BME280;8865;47.636;7.692;2024-02-21T11:34:19;98651.38;;;21.34;39.36
9474;BME280;8865;47.636;7.692;2024-02-21T11:36:49;98644.38;;;21.05;39.66
9474;BME280;8865;47.636;7.692;2024-02-21T11:39:26;98635.69;;;20.60;39.19
9474;BME280;8865;47.636;7.692;2024-02-21T11:42:04;98633.72;;;20.32;39.37
9474;BME280;8865;47.636;7.692;2024-02-21T11:44:32;98625.03;;;19.93;39.50
9474;BME280;8865;47.636;7.692;2024-02-21T11:46:59;98616.03;;;20.24;39.69
9474;BME280;8865;47.636;7.692;2024-02-21T11:49:29;98609.78;;;20.32;39.40
9474;BME280;8865;47.636;7.692;2024-02-21T11:52:02;98600.19;;;20.52;40.76
9474;BME280;8865;47.636;7.692;2024-02-21T11:54:30;98597.97;;;20.71;40.77
9474;BME280;8865;47.636;7.692;2024-02-21T11:56:56;98595.34;;;21.21;39.81
9474;BME280;8865;47.636;7.692;2024-02-21T11:59:22;98585.84;;;20.90;40.51
9474;BME280;8865;47.636;7.692;2024-02-21T12:01:49;98581.66;;;20.23;39.85
9474;BME280;8865;47.636;7.692;2024-02-21T12:04:15;98582.47;;;20.08;38.91
9474;BME280;8865;47.636;7.692;2024-02-21T12:06:45;98575.34;;;20.09;38.08
9474;BME280;8865;47.636;7.692;2024-02-21T12:09:15;98573.94;;;19.98;37.85
9474;BME280;8865;47.636;7.692;2024-02-21T12:11:43;98559.06;;;20.33;38.85
9474;BME280;8865;47.636;7.692;2024-02-21T12:14:09;98555.56;;;20.69;36.85
9474;BME280;8865;47.636;7.692;2024-02-21T12:16:36;98542.00;;;21.14;37.26
9474;BME280;8865;47.636;7.692;2024-02-21T12:19:03;98544.06;;;21.75;38.10
9474;BME280;8865;47.636;7.692;2024-02-21T12:21:33;98526.81;;;22.20;35.19
9474;BME280;8865;47.636;7.692;2024-02-21T12:26:40;98515.59;;;22.44;33.98
9474;BME280;8865;47.636;7.692;2024-02-21T12:29:06;98518.06;;;22.39;34.74
9474;BME280;8865;47.636;7.692;2024-02-21T12:31:32;98511.09;;;22.45;34.17
9474;BME280;8865;47.636;7.692;2024-02-21T12:33:58;98508.22;;;22.33;33.99
9474;BME280;8865;47.636;7.692;2024-02-21T12:36:25;98500.63;;;21.82;35.57
9474;BME280;8865;47.636;7.692;2024-02-21T12:38:52;98496.53;;;21.86;33.79
9474;BME280;8865;47.636;7.692;2024-02-21T12:43:43;98490.91;;;21.32;34.26
9474;BME280;8865;47.636;7.692;2024-02-21T12:46:09;98486.34;;;20.98;35.51
9474;BME280;8865;47.636;7.692;2024-02-21T12:48:35;98474.97;;;20.61;37.16
9474;BME280;8865;47.636;7.692;2024-02-21T12:51:01;98477.00;;;20.59;37.56
9474;BME280;8865;47.636;7.692;2024-02-21T12:53:28;98475.00;;;19.51;35.89
9474;BME280;8865;47.636;7.692;2024-02-21T12:55:54;98470.69;;;19.20;37.51
9474;BME280;8865;47.636;7.692;2024-02-21T12:58:20;98462.69;;;18.52;38.07
9474;BME280;8865;47.636;7.692;2024-02-21T13:00:47;98456.88;;;17.63;40.14
9474;BME280;8865;47.636;7.692;2024-02-21T13:03:14;98453.31;;;17.95;40.48
9474;BME280;8865;47.636;7.692;2024-02-21T13:05:40;98446.34;;;17.94;39.36
9474;BME280;8865;47.636;7.692;2024-02-21T13:08:06;98442.06;;;18.16;38.18
9474;BME280;8865;47.636;7.692;2024-02-21T13:10:33;98436.72;;;18.63;37.48
9474;BME280;8865;47.636;7.692;2024-02-21T13:13:02;98435.44;;;19.12;37.02
9474;BME280;8865;47.636;7.692;2024-02-21T13:15:29;98428.38;;;19.49;36.02
9474;BME280;8865;47.636;7.692;2024-02-21T13:17:58;98415.13;;;19.19;35.98
9474;BME280;8865;47.636;7.692;2024-02-21T13:20:27;98404.56;;;19.55;36.55
9474;BME280;8865;47.636;7.692;2024-02-21T13:22:54;98408.41;;;19.53;36.06
9474;BME280;8865;47.636;7.692;2024-02-21T13:25:20;98395.13;;;19.38;36.66
9474;BME280;8865;47.636;7.692;2024-02-21T13:27:47;98389.94;;;19.30;38.55
9474;BME280;8865;47.636;7.692;2024-02-21T13:30:14;98381.47;;;19.41;38.84
9474;BME280;8865;47.636;7.692;2024-02-21T13:32:42;98373.22;;;19.51;39.79
9474;BME280;8865;47.636;7.692;2024-02-21T13:35:09;98372.66;;;19.55;38.93
9474;BME280;8865;47.636;7.692;2024-02-21T13:37:42;98369.25;;;19.61;39.83